Clitheroe, United Kingdom
Current Conditions -  °F | °C
As of 9:20 AM on Friday 24 Oct 2014 (Local Time) from EGNO Reporting Station
Scattered Clouds Scattered Clouds  
Wind Chill: 54°   Ceiling: Unl
Heat Index: 54°   Visibility: 6mi
Dew Point: 52°   Wind: 7mph
Humidity: 94%   Direction: 210°SSW
Pressure: 29.85"   Gusts: NA
Location:  53.87°N, 2.4°W
Report Text: EGNO 240820Z 21006KT 9999 FEW007 SCT022 12/11 Q1011
Loading
Personal Weather Stations






























Interactive Weather Map
Tropical Storm Tracking
New forecast layout! Learn more

10-Day Weather Forecast

Advertisements
Track Severe Weather on mobile